sensor_id;sensor_type;location;lat;lon;timestamp;P1;durP1;ratioP1;P2;durP2;ratioP2
37791;SDS011;29527;55.766;37.570;2022-10-16T00:01:08;8.82;;;5.13;;
37791;SDS011;29527;55.766;37.570;2022-10-16T00:03:36;8.60;;;5.70;;
37791;SDS011;29527;55.766;37.570;2022-10-16T00:06:02;11.80;;;4.85;;
37791;SDS011;29527;55.766;37.570;2022-10-16T00:08:28;14.02;;;5.25;;
37791;SDS011;29527;55.766;37.570;2022-10-16T00:10:59;11.07;;;5.05;;
37791;SDS011;29527;55.766;37.570;2022-10-16T00:13:25;10.68;;;5.28;;
37791;SDS011;29527;55.766;37.570;2022-10-16T00:15:52;9.80;;;5.22;;
37791;SDS011;29527;55.766;37.570;2022-10-16T00:18:21;8.32;;;5.20;;
37791;SDS011;29527;55.766;37.570;2022-10-16T00:20:46;8.45;;;5.18;;
37791;SDS011;29527;55.766;37.570;2022-10-16T00:23:30;10.38;;;5.20;;
37791;SDS011;29527;55.766;37.570;2022-10-16T00:25:57;9.18;;;5.13;;
37791;SDS011;29527;55.766;37.570;2022-10-16T00:28:24;11.93;;;5.65;;
37791;SDS011;29527;55.766;37.570;2022-10-16T00:30:50;8.77;;;5.45;;
37791;SDS011;29527;55.766;37.570;2022-10-16T00:33:16;10.85;;;5.55;;
37791;SDS011;29527;55.766;37.570;2022-10-16T00:35:41;8.52;;;5.15;;
37791;SDS011;29527;55.766;37.570;2022-10-16T00:38:07;11.75;;;5.63;;
37791;SDS011;29527;55.766;37.570;2022-10-16T00:40:32;13.48;;;6.00;;
37791;SDS011;29527;55.766;37.570;2022-10-16T00:42:58;11.43;;;5.30;;
37791;SDS011;29527;55.766;37.570;2022-10-16T00:45:23;12.38;;;5.35;;
37791;SDS011;29527;55.766;37.570;2022-10-16T00:47:49;8.60;;;5.13;;
37791;SDS011;29527;55.766;37.570;2022-10-16T00:50:24;12.60;;;5.88;;
37791;SDS011;29527;55.766;37.570;2022-10-16T00:52:53;10.65;;;5.40;;
37791;SDS011;29527;55.766;37.570;2022-10-16T00:55:20;8.02;;;5.22;;
37791;SDS011;29527;55.766;37.570;2022-10-16T00:57:45;12.18;;;5.13;;
37791;SDS011;29527;55.766;37.570;2022-10-16T01:00:17;8.20;;;5.03;;
37791;SDS011;29527;55.766;37.570;2022-10-16T01:02:50;13.18;;;5.72;;
37791;SDS011;29527;55.766;37.570;2022-10-16T01:05:21;10.88;;;4.75;;
37791;SDS011;29527;55.766;37.570;2022-10-16T01:10:40;9.85;;;5.28;;
37791;SDS011;29527;55.766;37.570;2022-10-16T01:13:18;9.45;;;4.95;;
37791;SDS011;29527;55.766;37.570;2022-10-16T01:15:56;8.73;;;5.65;;
37791;SDS011;29527;55.766;37.570;2022-10-16T01:21:05;12.00;;;5.30;;
37791;SDS011;29527;55.766;37.570;2022-10-16T01:23:37;11.82;;;5.50;;
37791;SDS011;29527;55.766;37.570;2022-10-16T01:28:52;12.07;;;5.60;;
37791;SDS011;29527;55.766;37.570;2022-10-16T01:31:24;11.23;;;5.40;;
37791;SDS011;29527;55.766;37.570;2022-10-16T01:34:28;7.82;;;4.72;;
37791;SDS011;29527;55.766;37.570;2022-10-16T01:37:05;10.68;;;4.88;;
37791;SDS011;29527;55.766;37.570;2022-10-16T01:39:37;12.23;;;5.18;;
37791;SDS011;29527;55.766;37.570;2022-10-16T01:42:07;12.95;;;5.25;;
37791;SDS011;29527;55.766;37.570;2022-10-16T01:44:37;17.08;;;5.45;;
37791;SDS011;29527;55.766;37.570;2022-10-16T01:47:04;11.45;;;5.32;;
37791;SDS011;29527;55.766;37.570;2022-10-16T01:49:34;9.73;;;4.97;;
37791;SDS011;29527;55.766;37.570;2022-10-16T01:52:04;9.45;;;5.63;;
37791;SDS011;29527;55.766;37.570;2022-10-16T01:54:34;12.68;;;5.20;;
37791;SDS011;29527;55.766;37.570;2022-10-16T01:57:03;9.25;;;5.53;;
37791;SDS011;29527;55.766;37.570;2022-10-16T01:59:31;11.20;;;5.53;;
37791;SDS011;29527;55.766;37.570;2022-10-16T02:02:04;13.68;;;5.25;;
37791;SDS011;29527;55.766;37.570;2022-10-16T02:04:34;7.43;;;5.25;;
37791;SDS011;29527;55.766;37.570;2022-10-16T02:07:03;11.57;;;5.32;;
37791;SDS011;29527;55.766;37.570;2022-10-16T02:09:29;12.52;;;4.63;;
37791;SDS011;29527;55.766;37.570;2022-10-16T02:11:57;9.57;;;5.55;;
37791;SDS011;29527;55.766;37.570;2022-10-16T02:14:28;10.85;;;5.68;;
37791;SDS011;29527;55.766;37.570;2022-10-16T02:16:54;10.80;;;5.60;;
37791;SDS011;29527;55.766;37.570;2022-10-16T02:19:19;13.25;;;5.22;;
37791;SDS011;29527;55.766;37.570;2022-10-16T02:24:34;11.20;;;5.53;;
37791;SDS011;29527;55.766;37.570;2022-10-16T02:28:13;10.93;;;5.82;;
37791;SDS011;29527;55.766;37.570;2022-10-16T02:30:42;11.48;;;5.15;;
37791;SDS011;29527;55.766;37.570;2022-10-16T02:33:21;11.00;;;5.32;;
37791;SDS011;29527;55.766;37.570;2022-10-16T02:35:49;8.80;;;5.10;;
37791;SDS011;29527;55.766;37.570;2022-10-16T02:38:16;9.10;;;5.22;;
37791;SDS011;29527;55.766;37.570;2022-10-16T02:40:44;8.75;;;5.15;;
37791;SDS011;29527;55.766;37.570;2022-10-16T02:43:11;11.32;;;5.32;;
37791;SDS011;29527;55.766;37.570;2022-10-16T02:45:36;10.57;;;5.20;;
37791;SDS011;29527;55.766;37.570;2022-10-16T02:48:02;11.35;;;4.97;;
37791;SDS011;29527;55.766;37.570;2022-10-16T02:50:28;10.45;;;4.82;;
37791;SDS011;29527;55.766;37.570;2022-10-16T02:52:54;11.35;;;4.47;;
37791;SDS011;29527;55.766;37.570;2022-10-16T02:55:19;9.57;;;4.88;;
37791;SDS011;29527;55.766;37.570;2022-10-16T02:57:44;9.73;;;5.43;;
37791;SDS011;29527;55.766;37.570;2022-10-16T03:00:11;7.28;;;4.53;;
37791;SDS011;29527;55.766;37.570;2022-10-16T03:02:39;8.40;;;4.40;;
37791;SDS011;29527;55.766;37.570;2022-10-16T03:05:05;8.02;;;4.97;;
37791;SDS011;29527;55.766;37.570;2022-10-16T03:07:30;8.75;;;5.00;;
37791;SDS011;29527;55.766;37.570;2022-10-16T03:09:56;9.90;;;4.68;;
37791;SDS011;29527;55.766;37.570;2022-10-16T03:12:21;8.73;;;4.68;;
37791;SDS011;29527;55.766;37.570;2022-10-16T03:14:47;8.15;;;4.65;;
37791;SDS011;29527;55.766;37.570;2022-10-16T03:17:13;8.65;;;4.70;;
37791;SDS011;29527;55.766;37.570;2022-10-16T03:19:38;9.57;;;4.82;;
37791;SDS011;29527;55.766;37.570;2022-10-16T03:22:04;8.63;;;4.45;;
37791;SDS011;29527;55.766;37.570;2022-10-16T03:24:30;7.03;;;4.72;;
37791;SDS011;29527;55.766;37.570;2022-10-16T03:26:55;7.88;;;4.78;;
37791;SDS011;29527;55.766;37.570;2022-10-16T03:29:21;8.70;;;4.95;;
37791;SDS011;29527;55.766;37.570;2022-10-16T03:31:46;8.32;;;4.82;;
37791;SDS011;29527;55.766;37.570;2022-10-16T03:34:13;10.00;;;5.18;;
37791;SDS011;29527;55.766;37.570;2022-10-16T03:36:39;8.02;;;4.47;;
37791;SDS011;29527;55.766;37.570;2022-10-16T03:39:04;8.75;;;5.03;;
37791;SDS011;29527;55.766;37.570;2022-10-16T03:41:30;10.55;;;4.90;;
37791;SDS011;29527;55.766;37.570;2022-10-16T03:43:55;8.80;;;4.85;;
37791;SDS011;29527;55.766;37.570;2022-10-16T03:46:20;8.05;;;4.90;;
37791;SDS011;29527;55.766;37.570;2022-10-16T03:48:46;7.55;;;4.55;;
37791;SDS011;29527;55.766;37.570;2022-10-16T03:51:11;9.43;;;5.18;;
37791;SDS011;29527;55.766;37.570;2022-10-16T03:53:37;9.35;;;4.80;;
37791;SDS011;29527;55.766;37.570;2022-10-16T03:56:02;9.90;;;4.82;;
37791;SDS011;29527;55.766;37.570;2022-10-16T03:58:28;7.28;;;4.40;;
37791;SDS011;29527;55.766;37.570;2022-10-16T04:00:53;8.38;;;4.32;;
37791;SDS011;29527;55.766;37.570;2022-10-16T04:03:19;8.63;;;4.65;;
37791;SDS011;29527;55.766;37.570;2022-10-16T04:05:44;8.18;;;4.72;;
37791;SDS011;29527;55.766;37.570;2022-10-16T04:08:10;10.57;;;4.90;;
37791;SDS011;29527;55.766;37.570;2022-10-16T04:10:35;10.35;;;4.78;;
37791;SDS011;29527;55.766;37.570;2022-10-16T04:13:01;10.85;;;5.00;;
37791;SDS011;29527;55.766;37.570;2022-10-16T04:15:26;8.05;;;4.80;;
37791;SDS011;29527;55.766;37.570;2022-10-16T04:17:52;11.48;;;4.88;;
37791;SDS011;29527;55.766;37.570;2022-10-16T04:20:17;8.43;;;4.53;;
37791;SDS011;29527;55.766;37.570;2022-10-16T04:22:44;8.80;;;4.30;;
37791;SDS011;29527;55.766;37.570;2022-10-16T04:25:09;9.23;;;5.10;;
37791;SDS011;29527;55.766;37.570;2022-10-16T04:27:38;9.57;;;4.95;;
37791;SDS011;29527;55.766;37.570;2022-10-16T04:30:04;8.88;;;4.60;;
37791;SDS011;29527;55.766;37.570;2022-10-16T04:32:30;8.70;;;4.63;;
37791;SDS011;29527;55.766;37.570;2022-10-16T04:34:55;12.55;;;4.88;;
37791;SDS011;29527;55.766;37.570;2022-10-16T04:37:24;10.82;;;4.53;;
37791;SDS011;29527;55.766;37.570;2022-10-16T04:39:50;9.90;;;4.40;;
37791;SDS011;29527;55.766;37.570;2022-10-16T04:42:16;9.82;;;4.18;;
37791;SDS011;29527;55.766;37.570;2022-10-16T04:44:42;9.25;;;4.63;;
37791;SDS011;29527;55.766;37.570;2022-10-16T04:47:07;9.77;;;4.70;;
37791;SDS011;29527;55.766;37.570;2022-10-16T04:49:33;12.98;;;4.28;;
37791;SDS011;29527;55.766;37.570;2022-10-16T04:51:58;8.77;;;4.68;;
37791;SDS011;29527;55.766;37.570;2022-10-16T04:54:24;8.07;;;4.80;;
37791;SDS011;29527;55.766;37.570;2022-10-16T04:56:49;6.72;;;4.65;;
37791;SDS011;29527;55.766;37.570;2022-10-16T04:59:17;9.98;;;4.85;;
37791;SDS011;29527;55.766;37.570;2022-10-16T05:01:43;9.30;;;4.88;;
37791;SDS011;29527;55.766;37.570;2022-10-16T05:04:10;6.55;;;4.82;;
37791;SDS011;29527;55.766;37.570;2022-10-16T05:06:36;8.25;;;4.28;;
37791;SDS011;29527;55.766;37.570;2022-10-16T05:09:03;7.32;;;4.43;;
37791;SDS011;29527;55.766;37.570;2022-10-16T05:11:29;8.30;;;4.35;;
37791;SDS011;29527;55.766;37.570;2022-10-16T05:13:55;6.55;;;4.38;;
37791;SDS011;29527;55.766;37.570;2022-10-16T05:16:20;7.70;;;4.50;;
37791;SDS011;29527;55.766;37.570;2022-10-16T05:18:46;9.05;;;4.65;;
37791;SDS011;29527;55.766;37.570;2022-10-16T05:21:11;6.57;;;4.55;;
37791;SDS011;29527;55.766;37.570;2022-10-16T05:23:37;11.35;;;4.72;;
37791;SDS011;29527;55.766;37.570;2022-10-16T05:26:02;10.82;;;5.05;;
37791;SDS011;29527;55.766;37.570;2022-10-16T05:28:28;8.80;;;4.40;;
37791;SDS011;29527;55.766;37.570;2022-10-16T05:30:55;8.50;;;4.60;;
37791;SDS011;29527;55.766;37.570;2022-10-16T05:33:22;7.13;;;5.10;;
37791;SDS011;29527;55.766;37.570;2022-10-16T05:35:49;8.05;;;4.53;;
37791;SDS011;29527;55.766;37.570;2022-10-16T05:38:15;4.97;;;4.00;;
37791;SDS011;29527;55.766;37.570;2022-10-16T05:40:43;8.57;;;4.10;;
37791;SDS011;29527;55.766;37.570;2022-10-16T05:43:09;8.48;;;4.45;;
37791;SDS011;29527;55.766;37.570;2022-10-16T05:45:34;6.18;;;4.70;;
37791;SDS011;29527;55.766;37.570;2022-10-16T05:48:00;7.03;;;4.22;;
37791;SDS011;29527;55.766;37.570;2022-10-16T05:50:26;5.82;;;4.18;;
37791;SDS011;29527;55.766;37.570;2022-10-16T05:52:52;4.90;;;3.97;;
37791;SDS011;29527;55.766;37.570;2022-10-16T05:55:17;9.27;;;4.57;;
37791;SDS011;29527;55.766;37.570;2022-10-16T05:57:43;6.20;;;4.60;;
37791;SDS011;29527;55.766;37.570;2022-10-16T06:00:08;8.55;;;4.25;;
37791;SDS011;29527;55.766;37.570;2022-10-16T06:02:35;9.35;;;4.45;;
37791;SDS011;29527;55.766;37.570;2022-10-16T06:05:00;5.22;;;4.03;;
37791;SDS011;29527;55.766;37.570;2022-10-16T06:07:25;7.20;;;4.20;;
37791;SDS011;29527;55.766;37.570;2022-10-16T06:09:51;7.47;;;4.40;;
37791;SDS011;29527;55.766;37.570;2022-10-16T06:12:18;6.15;;;4.18;;
37791;SDS011;29527;55.766;37.570;2022-10-16T06:14:44;8.20;;;3.80;;
37791;SDS011;29527;55.766;37.570;2022-10-16T06:17:11;6.28;;;4.38;;
37791;SDS011;29527;55.766;37.570;2022-10-16T06:19:38;7.28;;;4.60;;
37791;SDS011;29527;55.766;37.570;2022-10-16T06:22:03;11.25;;;4.75;;
37791;SDS011;29527;55.766;37.570;2022-10-16T06:24:29;7.15;;;4.25;;
37791;SDS011;29527;55.766;37.570;2022-10-16T06:26:54;5.30;;;4.35;;
37791;SDS011;29527;55.766;37.570;2022-10-16T06:29:20;11.20;;;4.97;;
37791;SDS011;29527;55.766;37.570;2022-10-16T06:31:45;11.52;;;5.22;;
37791;SDS011;29527;55.766;37.570;2022-10-16T06:34:11;7.40;;;5.05;;
37791;SDS011;29527;55.766;37.570;2022-10-16T06:36:37;7.57;;;4.90;;
37791;SDS011;29527;55.766;37.570;2022-10-16T06:39:03;10.10;;;4.95;;
37791;SDS011;29527;55.766;37.570;2022-10-16T06:41:30;9.00;;;4.72;;
37791;SDS011;29527;55.766;37.570;2022-10-16T06:43:56;7.30;;;4.55;;
37791;SDS011;29527;55.766;37.570;2022-10-16T06:46:22;8.27;;;5.00;;
37791;SDS011;29527;55.766;37.570;2022-10-16T06:48:49;8.88;;;4.80;;
37791;SDS011;29527;55.766;37.570;2022-10-16T06:51:16;12.40;;;4.90;;
37791;SDS011;29527;55.766;37.570;2022-10-16T06:53:47;8.18;;;4.97;;
37791;SDS011;29527;55.766;37.570;2022-10-16T06:56:17;9.05;;;4.80;;
37791;SDS011;29527;55.766;37.570;2022-10-16T06:58:44;11.52;;;5.40;;
37791;SDS011;29527;55.766;37.570;2022-10-16T07:01:11;13.80;;;5.57;;
37791;SDS011;29527;55.766;37.570;2022-10-16T07:03:37;7.93;;;4.72;;
37791;SDS011;29527;55.766;37.570;2022-10-16T07:06:04;7.43;;;4.72;;
37791;SDS011;29527;55.766;37.570;2022-10-16T07:08:31;7.18;;;4.43;;
37791;SDS011;29527;55.766;37.570;2022-10-16T07:10:58;9.35;;;4.93;;
37791;SDS011;29527;55.766;37.570;2022-10-16T07:13:25;9.95;;;4.85;;
37791;SDS011;29527;55.766;37.570;2022-10-16T07:15:50;14.30;;;5.18;;
37791;SDS011;29527;55.766;37.570;2022-10-16T07:18:16;10.32;;;5.50;;
37791;SDS011;29527;55.766;37.570;2022-10-16T07:20:41;11.27;;;6.22;;
37791;SDS011;29527;55.766;37.570;2022-10-16T07:23:07;9.73;;;4.60;;
37791;SDS011;29527;55.766;37.570;2022-10-16T07:25:32;11.07;;;5.07;;
37791;SDS011;29527;55.766;37.570;2022-10-16T07:27:57;11.32;;;4.82;;
37791;SDS011;29527;55.766;37.570;2022-10-16T07:30:23;15.57;;;5.43;;
37791;SDS011;29527;55.766;37.570;2022-10-16T07:32:48;9.98;;;4.82;;
37791;SDS011;29527;55.766;37.570;2022-10-16T07:35:14;13.35;;;4.88;;
37791;SDS011;29527;55.766;37.570;2022-10-16T07:37:39;12.32;;;4.68;;
37791;SDS011;29527;55.766;37.570;2022-10-16T07:40:08;7.57;;;5.57;;
37791;SDS011;29527;55.766;37.570;2022-10-16T07:42:34;11.00;;;5.22;;
37791;SDS011;29527;55.766;37.570;2022-10-16T07:45:00;11.05;;;5.28;;
37791;SDS011;29527;55.766;37.570;2022-10-16T07:47:25;13.88;;;5.78;;
37791;SDS011;29527;55.766;37.570;2022-10-16T07:49:51;9.73;;;5.10;;
37791;SDS011;29527;55.766;37.570;2022-10-16T07:52:16;11.27;;;6.07;;
37791;SDS011;29527;55.766;37.570;2022-10-16T07:54:42;12.38;;;5.28;;
37791;SDS011;29527;55.766;37.570;2022-10-16T07:57:07;9.18;;;5.40;;
37791;SDS011;29527;55.766;37.570;2022-10-16T07:59:32;14.45;;;6.05;;
37791;SDS011;29527;55.766;37.570;2022-10-16T08:01:58;14.40;;;6.07;;
37791;SDS011;29527;55.766;37.570;2022-10-16T08:04:23;10.77;;;5.70;;
37791;SDS011;29527;55.766;37.570;2022-10-16T08:06:49;11.07;;;5.10;;
37791;SDS011;29527;55.766;37.570;2022-10-16T08:09:14;16.20;;;5.47;;
37791;SDS011;29527;55.766;37.570;2022-10-16T08:11:40;9.77;;;5.78;;
37791;SDS011;29527;55.766;37.570;2022-10-16T08:14:05;14.35;;;5.55;;
37791;SDS011;29527;55.766;37.570;2022-10-16T08:16:31;12.00;;;5.78;;
37791;SDS011;29527;55.766;37.570;2022-10-16T08:18:56;10.13;;;5.28;;
37791;SDS011;29527;55.766;37.570;2022-10-16T08:21:22;10.40;;;5.10;;
37791;SDS011;29527;55.766;37.570;2022-10-16T08:23:48;13.50;;;5.30;;
37791;SDS011;29527;55.766;37.570;2022-10-16T08:26:15;7.50;;;4.85;;
37791;SDS011;29527;55.766;37.570;2022-10-16T08:28:40;12.45;;;5.10;;
37791;SDS011;29527;55.766;37.570;2022-10-16T08:31:15;12.93;;;5.43;;
37791;SDS011;29527;55.766;37.570;2022-10-16T08:33:41;10.55;;;5.20;;
37791;SDS011;29527;55.766;37.570;2022-10-16T08:36:09;11.38;;;4.53;;
37791;SDS011;29527;55.766;37.570;2022-10-16T08:38:35;9.18;;;5.00;;
37791;SDS011;29527;55.766;37.570;2022-10-16T08:41:26;10.43;;;4.95;;
37791;SDS011;29527;55.766;37.570;2022-10-16T08:49:29;10.10;;;4.88;;
37791;SDS011;29527;55.766;37.570;2022-10-16T08:51:56;10.75;;;4.82;;
37791;SDS011;29527;55.766;37.570;2022-10-16T08:56:55;9.40;;;4.57;;
37791;SDS011;29527;55.766;37.570;2022-10-16T08:59:21;15.88;;;4.82;;
37791;SDS011;29527;55.766;37.570;2022-10-16T09:01:49;8.60;;;4.40;;
37791;SDS011;29527;55.766;37.570;2022-10-16T09:06:52;13.30;;;4.25;;
37791;SDS011;29527;55.766;37.570;2022-10-16T09:12:33;11.20;;;4.28;;
37791;SDS011;29527;55.766;37.570;2022-10-16T09:17:51;7.80;;;4.55;;
37791;SDS011;29527;55.766;37.570;2022-10-16T09:23:19;10.10;;;3.95;;
37791;SDS011;29527;55.766;37.570;2022-10-16T09:25:56;12.70;;;4.35;;
37791;SDS011;29527;55.766;37.570;2022-10-16T09:28:23;8.80;;;3.53;;
37791;SDS011;29527;55.766;37.570;2022-10-16T09:30:49;7.80;;;4.20;;
37791;SDS011;29527;55.766;37.570;2022-10-16T09:33:16;7.68;;;4.18;;
37791;SDS011;29527;55.766;37.570;2022-10-16T09:35:44;11.90;;;4.10;;
37791;SDS011;29527;55.766;37.570;2022-10-16T09:40:51;8.93;;;3.65;;
37791;SDS011;29527;55.766;37.570;2022-10-16T09:43:33;8.65;;;3.50;;
37791;SDS011;29527;55.766;37.570;2022-10-16T09:49:00;9.23;;;3.97;;
37791;SDS011;29527;55.766;37.570;2022-10-16T09:51:36;15.07;;;3.67;;
37791;SDS011;29527;55.766;37.570;2022-10-16T09:56:31;8.75;;;3.28;;
37791;SDS011;29527;55.766;37.570;2022-10-16T09:59:00;11.05;;;3.67;;
37791;SDS011;29527;55.766;37.570;2022-10-16T10:01:37;4.47;;;3.13;;
37791;SDS011;29527;55.766;37.570;2022-10-16T10:04:05;5.18;;;3.03;;
37791;SDS011;29527;55.766;37.570;2022-10-16T10:06:50;12.15;;;3.38;;
37791;SDS011;29527;55.766;37.570;2022-10-16T10:09:21;9.10;;;3.20;;
37791;SDS011;29527;55.766;37.570;2022-10-16T10:17:23;7.25;;;3.35;;
37791;SDS011;29527;55.766;37.570;2022-10-16T10:19:52;12.20;;;3.83;;
37791;SDS011;29527;55.766;37.570;2022-10-16T10:22:21;8.68;;;3.40;;
37791;SDS011;29527;55.766;37.570;2022-10-16T10:30:29;4.25;;;2.95;;
37791;SDS011;29527;55.766;37.570;2022-10-16T10:33:17;7.70;;;3.20;;
37791;SDS011;29527;55.766;37.570;2022-10-16T10:35:54;5.88;;;2.78;;
37791;SDS011;29527;55.766;37.570;2022-10-16T10:46:31;8.75;;;3.28;;
37791;SDS011;29527;55.766;37.570;2022-10-16T10:57:16;4.75;;;2.88;;
37791;SDS011;29527;55.766;37.570;2022-10-16T11:02:32;5.97;;;3.30;;
37791;SDS011;29527;55.766;37.570;2022-10-16T11:07:59;11.02;;;9.18;;
37791;SDS011;29527;55.766;37.570;2022-10-16T11:11:14;10.93;;;3.60;;
37791;SDS011;29527;55.766;37.570;2022-10-16T11:16:30;9.50;;;3.30;;
37791;SDS011;29527;55.766;37.570;2022-10-16T11:19:17;8.43;;;3.25;;
37791;SDS011;29527;55.766;37.570;2022-10-16T11:27:17;17.45;;;4.40;;
37791;SDS011;29527;55.766;37.570;2022-10-16T11:30:05;8.40;;;3.70;;
37791;SDS011;29527;55.766;37.570;2022-10-16T11:33:22;10.20;;;3.78;;
37791;SDS011;29527;55.766;37.570;2022-10-16T11:35:47;10.90;;;3.88;;
37791;SDS011;29527;55.766;37.570;2022-10-16T11:40:57;6.13;;;3.28;;
37791;SDS011;29527;55.766;37.570;2022-10-16T11:44:12;9.85;;;2.88;;
37791;SDS011;29527;55.766;37.570;2022-10-16T11:46:23;5.82;;;3.20;;
37791;SDS011;29527;55.766;37.570;2022-10-16T11:48:57;9.23;;;3.17;;
37791;SDS011;29527;55.766;37.570;2022-10-16T11:54:24;6.22;;;3.47;;
37791;SDS011;29527;55.766;37.570;2022-10-16T11:57:15;10.70;;;3.67;;
37791;SDS011;29527;55.766;37.570;2022-10-16T12:02:44;8.68;;;3.90;;
37791;SDS011;29527;55.766;37.570;2022-10-16T12:10:34;12.13;;;3.70;;
37791;SDS011;29527;55.766;37.570;2022-10-16T12:13:03;7.68;;;3.30;;
37791;SDS011;29527;55.766;37.570;2022-10-16T12:15:47;9.43;;;3.25;;
37791;SDS011;29527;55.766;37.570;2022-10-16T12:18:22;9.50;;;3.70;;
37791;SDS011;29527;55.766;37.570;2022-10-16T12:20:58;9.23;;;3.80;;
37791;SDS011;29527;55.766;37.570;2022-10-16T12:23:29;8.45;;;3.65;;
37791;SDS011;29527;55.766;37.570;2022-10-16T12:25:56;9.20;;;3.72;;
37791;SDS011;29527;55.766;37.570;2022-10-16T12:28:27;8.75;;;3.63;;
37791;SDS011;29527;55.766;37.570;2022-10-16T12:30:58;9.65;;;3.90;;
37791;SDS011;29527;55.766;37.570;2022-10-16T12:33:28;7.22;;;3.60;;
37791;SDS011;29527;55.766;37.570;2022-10-16T12:35:55;5.95;;;3.45;;
37791;SDS011;29527;55.766;37.570;2022-10-16T12:38:27;7.53;;;3.63;;
37791;SDS011;29527;55.766;37.570;2022-10-16T12:40:59;7.28;;;3.47;;
37791;SDS011;29527;55.766;37.570;2022-10-16T12:48:35;9.40;;;3.53;;
37791;SDS011;29527;55.766;37.570;2022-10-16T12:51:11;11.73;;;3.70;;
37791;SDS011;29527;55.766;37.570;2022-10-16T12:59:43;6.60;;;3.60;;
37791;SDS011;29527;55.766;37.570;2022-10-16T13:05:12;8.85;;;3.97;;
37791;SDS011;29527;55.766;37.570;2022-10-16T13:07:53;7.03;;;3.67;;
37791;SDS011;29527;55.766;37.570;2022-10-16T13:10:40;9.45;;;3.60;;
37791;SDS011;29527;55.766;37.570;2022-10-16T13:30:51;7.38;;;3.33;;
37791;SDS011;29527;55.766;37.570;2022-10-16T13:32:58;8.55;;;3.88;;
37791;SDS011;29527;55.766;37.570;2022-10-16T13:35:27;6.90;;;3.67;;
37791;SDS011;29527;55.766;37.570;2022-10-16T13:38:17;6.25;;;3.60;;
37791;SDS011;29527;55.766;37.570;2022-10-16T13:40:58;7.72;;;4.03;;
37791;SDS011;29527;55.766;37.570;2022-10-16T13:43:39;7.30;;;4.38;;
37791;SDS011;29527;55.766;37.570;2022-10-16T13:46:12;8.63;;;3.65;;
37791;SDS011;29527;55.766;37.570;2022-10-16T13:48:40;15.02;;;4.28;;
37791;SDS011;29527;55.766;37.570;2022-10-16T13:51:14;9.07;;;3.65;;
37791;SDS011;29527;55.766;37.570;2022-10-16T13:53:41;7.30;;;3.83;;
37791;SDS011;29527;55.766;37.570;2022-10-16T13:56:11;8.77;;;3.67;;
37791;SDS011;29527;55.766;37.570;2022-10-16T13:58:42;10.75;;;3.97;;
37791;SDS011;29527;55.766;37.570;2022-10-16T14:01:18;7.07;;;3.67;;
37791;SDS011;29527;55.766;37.570;2022-10-16T14:03:48;7.18;;;3.78;;
37791;SDS011;29527;55.766;37.570;2022-10-16T14:06:16;7.43;;;3.90;;
37791;SDS011;29527;55.766;37.570;2022-10-16T14:08:48;7.25;;;4.07;;
37791;SDS011;29527;55.766;37.570;2022-10-16T14:11:21;8.00;;;4.20;;
37791;SDS011;29527;55.766;37.570;2022-10-16T14:13:48;7.47;;;3.78;;
37791;SDS011;29527;55.766;37.570;2022-10-16T14:16:16;7.65;;;3.35;;
37791;SDS011;29527;55.766;37.570;2022-10-16T14:19:20;8.15;;;4.15;;
37791;SDS011;29527;55.766;37.570;2022-10-16T14:21:51;9.13;;;3.90;;
37791;SDS011;29527;55.766;37.570;2022-10-16T14:26:51;8.02;;;3.90;;
37791;SDS011;29527;55.766;37.570;2022-10-16T14:29:20;9.30;;;3.95;;
37791;SDS011;29527;55.766;37.570;2022-10-16T14:34:23;8.50;;;3.90;;
37791;SDS011;29527;55.766;37.570;2022-10-16T14:36:49;11.80;;;3.88;;
37791;SDS011;29527;55.766;37.570;2022-10-16T14:39:19;6.93;;;3.63;;
37791;SDS011;29527;55.766;37.570;2022-10-16T14:41:50;11.75;;;5.22;;
37791;SDS011;29527;55.766;37.570;2022-10-16T14:44:17;9.98;;;4.60;;
37791;SDS011;29527;55.766;37.570;2022-10-16T14:46:44;7.65;;;3.70;;
37791;SDS011;29527;55.766;37.570;2022-10-16T14:51:37;7.78;;;4.32;;
37791;SDS011;29527;55.766;37.570;2022-10-16T14:54:03;7.20;;;4.38;;
37791;SDS011;29527;55.766;37.570;2022-10-16T14:56:30;9.93;;;4.65;;
37791;SDS011;29527;55.766;37.570;2022-10-16T14:59:06;8.38;;;4.65;;
37791;SDS011;29527;55.766;37.570;2022-10-16T15:01:37;11.23;;;4.20;;
37791;SDS011;29527;55.766;37.570;2022-10-16T15:04:03;10.20;;;5.35;;
37791;SDS011;29527;55.766;37.570;2022-10-16T15:06:28;11.65;;;5.45;;
37791;SDS011;29527;55.766;37.570;2022-10-16T15:08:54;12.60;;;5.07;;
37791;SDS011;29527;55.766;37.570;2022-10-16T15:11:19;11.18;;;4.88;;
37791;SDS011;29527;55.766;37.570;2022-10-16T15:13:45;11.88;;;5.18;;
37791;SDS011;29527;55.766;37.570;2022-10-16T15:16:12;12.05;;;5.55;;
37791;SDS011;29527;55.766;37.570;2022-10-16T15:18:39;7.18;;;4.38;;
37791;SDS011;29527;55.766;37.570;2022-10-16T15:21:05;10.07;;;5.40;;
37791;SDS011;29527;55.766;37.570;2022-10-16T15:23:31;11.32;;;5.18;;
37791;SDS011;29527;55.766;37.570;2022-10-16T15:25:56;10.23;;;5.47;;
37791;SDS011;29527;55.766;37.570;2022-10-16T15:28:22;10.18;;;5.00;;
37791;SDS011;29527;55.766;37.570;2022-10-16T15:30:50;9.73;;;5.40;;
37791;SDS011;29527;55.766;37.570;2022-10-16T15:33:20;11.80;;;5.55;;
37791;SDS011;29527;55.766;37.570;2022-10-16T15:35:51;8.25;;;5.43;;
37791;SDS011;29527;55.766;37.570;2022-10-16T15:38:18;10.20;;;5.50;;
37791;SDS011;29527;55.766;37.570;2022-10-16T15:40:46;8.82;;;5.13;;
37791;SDS011;29527;55.766;37.570;2022-10-16T15:43:12;14.30;;;5.47;;
37791;SDS011;29527;55.766;37.570;2022-10-16T15:45:38;12.15;;;5.50;;
37791;SDS011;29527;55.766;37.570;2022-10-16T15:48:04;12.63;;;5.25;;
37791;SDS011;29527;55.766;37.570;2022-10-16T15:50:30;8.32;;;4.80;;
37791;SDS011;29527;55.766;37.570;2022-10-16T15:52:57;10.75;;;5.28;;
37791;SDS011;29527;55.766;37.570;2022-10-16T15:55:22;9.57;;;5.43;;
37791;SDS011;29527;55.766;37.570;2022-10-16T15:57:48;9.38;;;5.03;;
37791;SDS011;29527;55.766;37.570;2022-10-16T16:00:15;8.88;;;5.05;;
37791;SDS011;29527;55.766;37.570;2022-10-16T16:02:43;12.00;;;5.05;;
37791;SDS011;29527;55.766;37.570;2022-10-16T16:05:14;11.70;;;5.05;;
37791;SDS011;29527;55.766;37.570;2022-10-16T16:07:40;8.68;;;4.50;;
37791;SDS011;29527;55.766;37.570;2022-10-16T16:10:06;7.05;;;4.57;;
37791;SDS011;29527;55.766;37.570;2022-10-16T16:12:33;11.07;;;4.57;;
37791;SDS011;29527;55.766;37.570;2022-10-16T16:14:59;7.63;;;4.38;;
37791;SDS011;29527;55.766;37.570;2022-10-16T16:17:24;9.23;;;4.47;;
37791;SDS011;29527;55.766;37.570;2022-10-16T16:19:50;9.45;;;4.45;;
37791;SDS011;29527;55.766;37.570;2022-10-16T16:22:16;9.00;;;4.63;;
37791;SDS011;29527;55.766;37.570;2022-10-16T16:24:41;6.90;;;4.40;;
37791;SDS011;29527;55.766;37.570;2022-10-16T16:27:07;8.10;;;4.88;;
37791;SDS011;29527;55.766;37.570;2022-10-16T16:29:33;10.80;;;4.18;;
37791;SDS011;29527;55.766;37.570;2022-10-16T16:31:59;8.90;;;4.30;;
37791;SDS011;29527;55.766;37.570;2022-10-16T16:34:25;12.07;;;4.47;;
37791;SDS011;29527;55.766;37.570;2022-10-16T16:36:52;9.07;;;4.30;;
37791;SDS011;29527;55.766;37.570;2022-10-16T16:39:17;8.65;;;4.35;;
37791;SDS011;29527;55.766;37.570;2022-10-16T16:41:43;9.45;;;4.18;;
37791;SDS011;29527;55.766;37.570;2022-10-16T16:44:10;5.65;;;3.65;;
37791;SDS011;29527;55.766;37.570;2022-10-16T16:46:36;7.93;;;4.15;;
37791;SDS011;29527;55.766;37.570;2022-10-16T16:49:04;9.57;;;4.22;;
37791;SDS011;29527;55.766;37.570;2022-10-16T16:51:32;7.68;;;4.60;;